sensor_id;sensor_type;location;lat;lon;timestamp;temperature;humidity
24682;DHT22;12802;53.390;-2.328;2023-10-09T00:34:52;13.80;99.90
24682;DHT22;12802;53.390;-2.328;2023-10-09T00:37:18;13.80;99.90
24682;DHT22;12802;53.390;-2.328;2023-10-09T00:39:49;13.80;99.90
24682;DHT22;12802;53.390;-2.328;2023-10-09T00:42:22;13.80;99.90
24682;DHT22;12802;53.390;-2.328;2023-10-09T00:45:00;13.80;99.90
24682;DHT22;12802;53.390;-2.328;2023-10-09T00:47:34;13.80;99.90
24682;DHT22;12802;53.390;-2.328;2023-10-09T00:50:05;13.80;99.90
24682;DHT22;12802;53.390;-2.328;2023-10-09T00:52:44;13.80;99.90
24682;DHT22;12802;53.390;-2.328;2023-10-09T00:55:18;13.80;99.90
24682;DHT22;12802;53.390;-2.328;2023-10-09T01:02:59;13.60;99.90
24682;DHT22;12802;53.390;-2.328;2023-10-09T01:08:29;14.00;99.90
24682;DHT22;12802;53.390;-2.328;2023-10-09T01:23:51;13.90;99.90
24682;DHT22;12802;53.390;-2.328;2023-10-09T01:26:32;13.90;99.90
24682;DHT22;12802;53.390;-2.328;2023-10-09T01:34:25;13.80;99.90
24682;DHT22;12802;53.390;-2.328;2023-10-09T01:37:15;13.80;99.90
24682;DHT22;12802;53.390;-2.328;2023-10-09T01:39:48;13.80;99.90
24682;DHT22;12802;53.390;-2.328;2023-10-09T01:42:18;13.70;99.90
24682;DHT22;12802;53.390;-2.328;2023-10-09T01:44:59;13.80;99.90
24682;DHT22;12802;53.390;-2.328;2023-10-09T01:47:35;13.80;99.90
24682;DHT22;12802;53.390;-2.328;2023-10-09T01:50:04;13.80;99.90
24682;DHT22;12802;53.390;-2.328;2023-10-09T01:52:31;13.70;99.90
24682;DHT22;12802;53.390;-2.328;2023-10-09T01:54:56;13.70;99.90
24682;DHT22;12802;53.390;-2.328;2023-10-09T01:57:27;13.60;99.90
24682;DHT22;12802;53.390;-2.328;2023-10-09T01:59:55;13.60;99.90
24682;DHT22;12802;53.390;-2.328;2023-10-09T02:02:25;13.70;99.90
24682;DHT22;12802;53.390;-2.328;2023-10-09T02:04:56;13.80;99.90
24682;DHT22;12802;53.390;-2.328;2023-10-09T02:07:41;13.80;99.90
24682;DHT22;12802;53.390;-2.328;2023-10-09T02:10:13;13.80;99.90
24682;DHT22;12802;53.390;-2.328;2023-10-09T02:13:04;13.90;99.90
24682;DHT22;12802;53.390;-2.328;2023-10-09T02:15:37;13.90;99.90
24682;DHT22;12802;53.390;-2.328;2023-10-09T02:23:38;13.80;99.90
24682;DHT22;12802;53.390;-2.328;2023-10-09T02:26:08;13.90;99.90
24682;DHT22;12802;53.390;-2.328;2023-10-09T03:36:04;13.40;99.90
24682;DHT22;12802;53.390;-2.328;2023-10-09T03:38:37;13.50;99.90
24682;DHT22;12802;53.390;-2.328;2023-10-09T03:41:04;13.50;99.90
24682;DHT22;12802;53.390;-2.328;2023-10-09T03:43:38;13.50;99.90
24682;DHT22;12802;53.390;-2.328;2023-10-09T03:46:10;13.30;99.90
24682;DHT22;12802;53.390;-2.328;2023-10-09T03:48:49;13.30;99.90
24682;DHT22;12802;53.390;-2.328;2023-10-09T03:51:15;13.30;99.90
24682;DHT22;12802;53.390;-2.328;2023-10-09T03:53:51;13.30;99.90
24682;DHT22;12802;53.390;-2.328;2023-10-09T03:56:20;13.30;99.90
24682;DHT22;12802;53.390;-2.328;2023-10-09T03:58:48;13.30;99.90
24682;DHT22;12802;53.390;-2.328;2023-10-09T04:01:19;13.40;99.90
24682;DHT22;12802;53.390;-2.328;2023-10-09T04:04:20;13.40;99.90
24682;DHT22;12802;53.390;-2.328;2023-10-09T04:06:49;13.40;99.90
24682;DHT22;12802;53.390;-2.328;2023-10-09T04:09:17;13.40;99.90
24682;DHT22;12802;53.390;-2.328;2023-10-09T04:11:46;13.30;99.90
24682;DHT22;12802;53.390;-2.328;2023-10-09T04:14:23;13.30;99.90
24682;DHT22;12802;53.390;-2.328;2023-10-09T04:16:59;13.30;99.90
24682;DHT22;12802;53.390;-2.328;2023-10-09T04:19:54;13.30;99.90
24682;DHT22;12802;53.390;-2.328;2023-10-09T04:22:40;13.30;99.90
24682;DHT22;12802;53.390;-2.328;2023-10-09T04:25:16;13.40;99.90
24682;DHT22;12802;53.390;-2.328;2023-10-09T04:27:52;13.40;99.90
24682;DHT22;12802;53.390;-2.328;2023-10-09T04:30:19;13.40;99.90
24682;DHT22;12802;53.390;-2.328;2023-10-09T04:32:44;13.40;99.90
24682;DHT22;12802;53.390;-2.328;2023-10-09T04:35:11;13.40;99.90
24682;DHT22;12802;53.390;-2.328;2023-10-09T04:37:49;13.40;99.90
24682;DHT22;12802;53.390;-2.328;2023-10-09T04:40:35;13.40;99.90
24682;DHT22;12802;53.390;-2.328;2023-10-09T04:43:04;13.30;99.90
24682;DHT22;12802;53.390;-2.328;2023-10-09T04:45:37;13.30;99.90
24682;DHT22;12802;53.390;-2.328;2023-10-09T04:48:09;13.20;99.90
24682;DHT22;12802;53.390;-2.328;2023-10-09T04:50:36;13.20;99.90
24682;DHT22;12802;53.390;-2.328;2023-10-09T04:53:02;13.20;99.90
24682;DHT22;12802;53.390;-2.328;2023-10-09T04:55:43;13.20;99.90
24682;DHT22;12802;53.390;-2.328;2023-10-09T04:58:22;13.20;99.90
24682;DHT22;12802;53.390;-2.328;2023-10-09T05:00:54;13.20;99.90
24682;DHT22;12802;53.390;-2.328;2023-10-09T05:03:23;13.20;99.90
24682;DHT22;12802;53.390;-2.328;2023-10-09T05:06:09;13.20;99.90
24682;DHT22;12802;53.390;-2.328;2023-10-09T05:08:50;13.20;99.90
24682;DHT22;12802;53.390;-2.328;2023-10-09T05:11:22;13.20;99.90
24682;DHT22;12802;53.390;-2.328;2023-10-09T05:14:21;13.30;99.90
24682;DHT22;12802;53.390;-2.328;2023-10-09T05:17:07;13.20;99.90
24682;DHT22;12802;53.390;-2.328;2023-10-09T05:19:35;13.20;99.90
24682;DHT22;12802;53.390;-2.328;2023-10-09T05:22:20;13.30;99.90
24682;DHT22;12802;53.390;-2.328;2023-10-09T05:25:11;13.30;99.90
24682;DHT22;12802;53.390;-2.328;2023-10-09T05:27:41;13.20;99.90
24682;DHT22;12802;53.390;-2.328;2023-10-09T05:30:16;13.40;99.90
24682;DHT22;12802;53.390;-2.328;2023-10-09T05:32:53;13.50;99.90
24682;DHT22;12802;53.390;-2.328;2023-10-09T05:35:24;13.50;99.90
24682;DHT22;12802;53.390;-2.328;2023-10-09T05:38:10;13.50;99.90
24682;DHT22;12802;53.390;-2.328;2023-10-09T05:46:04;13.40;99.90
24682;DHT22;12802;53.390;-2.328;2023-10-09T05:48:33;13.50;99.90
24682;DHT22;12802;53.390;-2.328;2023-10-09T05:54:04;13.60;99.90
24682;DHT22;12802;53.390;-2.328;2023-10-09T05:56:37;13.50;99.90
24682;DHT22;12802;53.390;-2.328;2023-10-09T05:59:23;13.60;99.90
24682;DHT22;12802;53.390;-2.328;2023-10-09T07:03:29;14.20;99.90
24682;DHT22;12802;53.390;-2.328;2023-10-09T07:06:10;14.30;99.90
24682;DHT22;12802;53.390;-2.328;2023-10-09T07:11:47;14.40;99.90
24682;DHT22;12802;53.390;-2.328;2023-10-09T07:14:20;14.30;99.90
24682;DHT22;12802;53.390;-2.328;2023-10-09T07:19:26;14.40;99.90
24682;DHT22;12802;53.390;-2.328;2023-10-09T07:22:13;14.40;99.90
24682;DHT22;12802;53.390;-2.328;2023-10-09T07:27:28;14.50;99.90
24682;DHT22;12802;53.390;-2.328;2023-10-09T07:33:07;14.50;99.90
24682;DHT22;12802;53.390;-2.328;2023-10-09T07:40:49;14.60;99.90
24682;DHT22;12802;53.390;-2.328;2023-10-09T08:16:59;14.90;99.90
24682;DHT22;12802;53.390;-2.328;2023-10-09T08:19:48;14.90;99.90
24682;DHT22;12802;53.390;-2.328;2023-10-09T08:22:30;14.90;99.90
24682;DHT22;12802;53.390;-2.328;2023-10-09T08:24:56;15.00;99.90
24682;DHT22;12802;53.390;-2.328;2023-10-09T08:27:23;15.00;99.90
24682;DHT22;12802;53.390;-2.328;2023-10-09T08:30:05;15.00;99.90
24682;DHT22;12802;53.390;-2.328;2023-10-09T08:32:45;15.10;99.90
24682;DHT22;12802;53.390;-2.328;2023-10-09T08:35:46;15.20;99.90
24682;DHT22;12802;53.390;-2.328;2023-10-09T08:38:14;15.30;99.90
24682;DHT22;12802;53.390;-2.328;2023-10-09T08:40:41;15.30;99.90
24682;DHT22;12802;53.390;-2.328;2023-10-09T08:43:16;15.30;99.90
24682;DHT22;12802;53.390;-2.328;2023-10-09T08:46:02;15.30;99.90
24682;DHT22;12802;53.390;-2.328;2023-10-09T08:48:30;15.40;99.90
24682;DHT22;12802;53.390;-2.328;2023-10-09T08:50:56;15.40;99.90
24682;DHT22;12802;53.390;-2.328;2023-10-09T08:53:23;15.40;99.90
24682;DHT22;12802;53.390;-2.328;2023-10-09T08:56:01;15.40;99.90
24682;DHT22;12802;53.390;-2.328;2023-10-09T08:58:29;15.50;99.90
24682;DHT22;12802;53.390;-2.328;2023-10-09T09:01:05;15.50;99.90
24682;DHT22;12802;53.390;-2.328;2023-10-09T09:03:41;15.50;99.90
24682;DHT22;12802;53.390;-2.328;2023-10-09T09:06:09;15.60;99.90
24682;DHT22;12802;53.390;-2.328;2023-10-09T09:08:36;15.60;99.90
24682;DHT22;12802;53.390;-2.328;2023-10-09T09:11:13;15.70;99.90
24682;DHT22;12802;53.390;-2.328;2023-10-09T09:14:01;15.70;99.90
24682;DHT22;12802;53.390;-2.328;2023-10-09T09:16:30;15.80;99.90
24682;DHT22;12802;53.390;-2.328;2023-10-09T09:18:59;15.80;99.90
24682;DHT22;12802;53.390;-2.328;2023-10-09T09:21:51;15.90;99.90
24682;DHT22;12802;53.390;-2.328;2023-10-09T09:29:37;16.10;99.90
24682;DHT22;12802;53.390;-2.328;2023-10-09T09:32:28;16.10;99.90
24682;DHT22;12802;53.390;-2.328;2023-10-09T09:35:05;16.10;99.90
24682;DHT22;12802;53.390;-2.328;2023-10-09T09:37:52;16.10;99.90
24682;DHT22;12802;53.390;-2.328;2023-10-09T09:40:20;16.20;99.90
24682;DHT22;12802;53.390;-2.328;2023-10-09T09:43:00;16.20;99.90
24682;DHT22;12802;53.390;-2.328;2023-10-09T09:45:36;16.30;99.90
24682;DHT22;12802;53.390;-2.328;2023-10-09T09:48:05;16.40;99.90
24682;DHT22;12802;53.390;-2.328;2023-10-09T09:50:32;16.40;99.90
24682;DHT22;12802;53.390;-2.328;2023-10-09T09:52:59;16.40;99.90
24682;DHT22;12802;53.390;-2.328;2023-10-09T09:55:26;16.40;99.90
24682;DHT22;12802;53.390;-2.328;2023-10-09T09:57:58;16.40;99.90
24682;DHT22;12802;53.390;-2.328;2023-10-09T10:03:23;16.50;99.90
24682;DHT22;12802;53.390;-2.328;2023-10-09T10:05:51;16.60;99.90
24682;DHT22;12802;53.390;-2.328;2023-10-09T10:08:18;16.60;99.90
24682;DHT22;12802;53.390;-2.328;2023-10-09T10:10:46;16.60;99.90
24682;DHT22;12802;53.390;-2.328;2023-10-09T10:13:56;16.60;99.90
24682;DHT22;12802;53.390;-2.328;2023-10-09T10:19:09;16.70;99.90
24682;DHT22;12802;53.390;-2.328;2023-10-09T10:21:43;16.60;99.90
24682;DHT22;12802;53.390;-2.328;2023-10-09T10:32:55;16.70;99.90
24682;DHT22;12802;53.390;-2.328;2023-10-09T10:35:24;16.80;99.90
24682;DHT22;12802;53.390;-2.328;2023-10-09T10:40:50;16.80;99.90
24682;DHT22;12802;53.390;-2.328;2023-10-09T10:43:26;16.40;99.90
24682;DHT22;12802;53.390;-2.328;2023-10-09T10:46:05;16.90;99.90
24682;DHT22;12802;53.390;-2.328;2023-10-09T10:48:53;16.90;99.90
24682;DHT22;12802;53.390;-2.328;2023-10-09T10:51:40;16.90;99.90
24682;DHT22;12802;53.390;-2.328;2023-10-09T10:54:07;16.90;99.90
24682;DHT22;12802;53.390;-2.328;2023-10-09T10:56:51;16.90;99.90
24682;DHT22;12802;53.390;-2.328;2023-10-09T10:59:18;16.90;99.90
24682;DHT22;12802;53.390;-2.328;2023-10-09T11:01:53;16.90;99.90
24682;DHT22;12802;53.390;-2.328;2023-10-09T11:04:24;17.00;99.90
24682;DHT22;12802;53.390;-2.328;2023-10-09T11:06:56;17.00;99.90
24682;DHT22;12802;53.390;-2.328;2023-10-09T11:09:55;17.00;99.90
24682;DHT22;12802;53.390;-2.328;2023-10-09T11:12:31;17.00;99.90
24682;DHT22;12802;53.390;-2.328;2023-10-09T11:15:15;17.00;99.90
24682;DHT22;12802;53.390;-2.328;2023-10-09T11:17:59;17.10;99.90
24682;DHT22;12802;53.390;-2.328;2023-10-09T11:20:32;17.10;99.90
24682;DHT22;12802;53.390;-2.328;2023-10-09T11:22:59;17.10;99.90
24682;DHT22;12802;53.390;-2.328;2023-10-09T11:45:49;17.40;99.90
24682;DHT22;12802;53.390;-2.328;2023-10-09T11:48:22;17.40;99.90
24682;DHT22;12802;53.390;-2.328;2023-10-09T11:50:52;17.40;99.90
24682;DHT22;12802;53.390;-2.328;2023-10-09T11:53:19;17.50;99.90
24682;DHT22;12802;53.390;-2.328;2023-10-09T11:55:48;17.50;99.90
24682;DHT22;12802;53.390;-2.328;2023-10-09T11:58:18;17.50;99.90
24682;DHT22;12802;53.390;-2.328;2023-10-09T12:00:58;17.40;99.90
24682;DHT22;12802;53.390;-2.328;2023-10-09T12:11:07;17.70;99.90
24682;DHT22;12802;53.390;-2.328;2023-10-09T12:13:35;17.70;99.90
24682;DHT22;12802;53.390;-2.328;2023-10-09T12:28:27;17.70;99.90
24682;DHT22;12802;53.390;-2.328;2023-10-09T12:30:54;17.70;99.90
24682;DHT22;12802;53.390;-2.328;2023-10-09T13:36:12;17.50;99.90
24682;DHT22;12802;53.390;-2.328;2023-10-09T13:39:01;17.50;99.90
24682;DHT22;12802;53.390;-2.328;2023-10-09T13:41:47;17.60;99.90
24682;DHT22;12802;53.390;-2.328;2023-10-09T13:44:12;17.60;99.90
24682;DHT22;12802;53.390;-2.328;2023-10-09T13:46:38;17.70;99.90
24682;DHT22;12802;53.390;-2.328;2023-10-09T13:49:10;17.70;99.90
24682;DHT22;12802;53.390;-2.328;2023-10-09T13:51:40;17.60;99.90
24682;DHT22;12802;53.390;-2.328;2023-10-09T13:54:10;17.60;99.90
24682;DHT22;12802;53.390;-2.328;2023-10-09T13:56:35;17.60;99.90
24682;DHT22;12802;53.390;-2.328;2023-10-09T17:00:09;17.30;99.90
24682;DHT22;12802;53.390;-2.328;2023-10-09T17:02:39;17.30;99.90
24682;DHT22;12802;53.390;-2.328;2023-10-09T17:05:09;17.30;99.90
24682;DHT22;12802;53.390;-2.328;2023-10-09T17:07:35;17.30;99.90
24682;DHT22;12802;53.390;-2.328;2023-10-09T17:10:02;17.20;99.90
24682;DHT22;12802;53.390;-2.328;2023-10-09T17:12:35;17.30;99.90
24682;DHT22;12802;53.390;-2.328;2023-10-09T17:15:01;17.30;99.90
24682;DHT22;12802;53.390;-2.328;2023-10-09T17:17:27;17.30;99.90
24682;DHT22;12802;53.390;-2.328;2023-10-09T17:19:53;17.50;99.90
24682;DHT22;12802;53.390;-2.328;2023-10-09T17:22:18;17.30;99.90
24682;DHT22;12802;53.390;-2.328;2023-10-09T17:24:44;17.20;99.90
24682;DHT22;12802;53.390;-2.328;2023-10-09T17:27:11;17.20;99.90
24682;DHT22;12802;53.390;-2.328;2023-10-09T17:29:43;17.20;99.90
24682;DHT22;12802;53.390;-2.328;2023-10-09T17:32:09;17.20;99.90
24682;DHT22;12802;53.390;-2.328;2023-10-09T17:34:37;17.20;99.90
24682;DHT22;12802;53.390;-2.328;2023-10-09T17:37:05;17.20;99.90
24682;DHT22;12802;53.390;-2.328;2023-10-09T17:39:30;17.10;99.90
24682;DHT22;12802;53.390;-2.328;2023-10-09T17:41:56;17.20;99.90
24682;DHT22;12802;53.390;-2.328;2023-10-09T17:44:22;17.20;99.90
24682;DHT22;12802;53.390;-2.328;2023-10-09T17:46:48;17.20;99.90
24682;DHT22;12802;53.390;-2.328;2023-10-09T17:49:16;17.10;99.90
24682;DHT22;12802;53.390;-2.328;2023-10-09T17:51:42;17.20;99.90
24682;DHT22;12802;53.390;-2.328;2023-10-09T17:56:39;17.10;99.90
24682;DHT22;12802;53.390;-2.328;2023-10-09T17:59:06;17.10;99.90
24682;DHT22;12802;53.390;-2.328;2023-10-09T18:01:38;17.10;99.90
24682;DHT22;12802;53.390;-2.328;2023-10-09T18:04:04;17.10;99.90
24682;DHT22;12802;53.390;-2.328;2023-10-09T18:06:30;17.10;99.90
24682;DHT22;12802;53.390;-2.328;2023-10-09T18:08:57;17.10;99.90
24682;DHT22;12802;53.390;-2.328;2023-10-09T18:11:23;17.10;99.90
24682;DHT22;12802;53.390;-2.328;2023-10-09T18:13:49;17.10;99.90
24682;DHT22;12802;53.390;-2.328;2023-10-09T18:16:15;17.10;99.90
24682;DHT22;12802;53.390;-2.328;2023-10-09T18:18:43;17.10;99.90
24682;DHT22;12802;53.390;-2.328;2023-10-09T18:21:09;17.00;99.90
24682;DHT22;12802;53.390;-2.328;2023-10-09T18:23:36;17.00;99.90
